Skip Navigation LinksHome page > Weather > Current weather Skip Navigation Links

Current Weather

Lansing Muni, Lansing, Ill.

For information only: do not use for flight planning or navigation.
Latest weather
Observation time Friday, February 21, 2020 1:55 AM CST
Local time Friday, February 21, 2020 2:11 AM CST
Flight conditions Visual Meteorological Conditions
Winds
Wind speed calm
Visibility 10 mi.
Sky condition
Ceiling unlimited
Sky clear
Temperature 12°F
Dewpoint 2°F
Altimeter 30.65 in.Hg
Derived measurements
Relative humidity 63%
Wind chill 12°F
Density altitude -3454 ft.
Remarks
Fully automated report.
Automated weather observing station with precipitation discriminator.
METAR KIGQ 210755Z AUTO 00000KT 10SM CLR M11/M17 A3065 RMK AO2 T11101166

Settings

Location code

InnerDrive.Weather 4.0.6770.0 Release CLR 4.0.30319.42000
Copyright ©2018 Inner Drive Technology. All rights reserved. Portions Copyright ©1986-2018 David Braverman.

Find weather

Site navigation


Skip Navigation Links

Place info

Page info

PayPal - The safer, easier way to pay online!

Return home.

Copyright ©2020 Inner Drive Technology. Purveyors of fine, hand-crafted computer software. Page printed 2020-02-21T08:11:13 UTC.